<?xml version="1.0" encoding="UTF-8" standalone="no" ?>
<gpx xmlns="http://www.topografix.com/GPX/1/1" xmlns:xsi="http://www.w3.org/2001/XMLSchema-instance" xsi:schemaLocation="http://www.topografix.com/GPX/1/1 http://www.topografix.com/GPX/1/1/gpx.xsd" version="1.1" creator="VisuGPX - https://www.visugpx.com">
  <metadata>
    <name>12537468-Savigny 3</name>
  </metadata>
  <trk>
    <name><![CDATA[12537468-Savigny 3]]></name>
    <trkseg>
      <trkpt lat="45.8164" lon="4.57488">
        <ele>297</ele>
        <time>2022-02-15T13:48:41Z</time>
      </trkpt>
      <trkpt lat="45.81643" lon="4.57353">
        <ele>307</ele>
        <time>2022-02-15T13:50:47Z</time>
      </trkpt>
      <trkpt lat="45.81606" lon="4.57318">
        <ele>309</ele>
        <time>2022-02-15T13:51:46Z</time>
      </trkpt>
      <trkpt lat="45.81637" lon="4.57168">
        <ele>326</ele>
        <time>2022-02-15T13:54:11Z</time>
      </trkpt>
      <trkpt lat="45.81637" lon="4.56951">
        <ele>347</ele>
        <time>2022-02-15T13:57:33Z</time>
      </trkpt>
      <trkpt lat="45.81691" lon="4.56814">
        <ele>354</ele>
        <time>2022-02-15T13:59:59Z</time>
      </trkpt>
      <trkpt lat="45.81651" lon="4.56727">
        <ele>350</ele>
        <time>2022-02-15T14:01:36Z</time>
      </trkpt>
      <trkpt lat="45.81732" lon="4.56473">
        <ele>362</ele>
        <time>2022-02-15T14:05:56Z</time>
      </trkpt>
      <trkpt lat="45.81687" lon="4.56362">
        <ele>366</ele>
        <time>2022-02-15T14:07:56Z</time>
      </trkpt>
      <trkpt lat="45.8169" lon="4.56279">
        <ele>368</ele>
        <time>2022-02-15T14:09:13Z</time>
      </trkpt>
      <trkpt lat="45.81774" lon="4.56189">
        <ele>375</ele>
        <time>2022-02-15T14:11:33Z</time>
      </trkpt>
      <trkpt lat="45.81779" lon="4.55988">
        <ele>384</ele>
        <time>2022-02-15T14:14:40Z</time>
      </trkpt>
      <trkpt lat="45.81831" lon="4.55792">
        <ele>388</ele>
        <time>2022-02-15T14:17:55Z</time>
      </trkpt>
      <trkpt lat="45.81832" lon="4.55684">
        <ele>393</ele>
        <time>2022-02-15T14:19:35Z</time>
      </trkpt>
      <trkpt lat="45.81642" lon="4.55697">
        <ele>382</ele>
        <time>2022-02-15T14:23:49Z</time>
      </trkpt>
      <trkpt lat="45.81603" lon="4.55639">
        <ele>376</ele>
        <time>2022-02-15T14:25:04Z</time>
      </trkpt>
      <trkpt lat="45.81607" lon="4.55512">
        <ele>377</ele>
        <time>2022-02-15T14:27:02Z</time>
      </trkpt>
      <trkpt lat="45.81574" lon="4.55442">
        <ele>370</ele>
        <time>2022-02-15T14:28:21Z</time>
      </trkpt>
      <trkpt lat="45.81626" lon="4.55279">
        <ele>385</ele>
        <time>2022-02-15T14:31:08Z</time>
      </trkpt>
      <trkpt lat="45.8164" lon="4.55066">
        <ele>379</ele>
        <time>2022-02-15T14:34:27Z</time>
      </trkpt>
      <trkpt lat="45.81633" lon="4.54937">
        <ele>370</ele>
        <time>2022-02-15T14:36:27Z</time>
      </trkpt>
      <trkpt lat="45.81599" lon="4.55028">
        <ele>364</ele>
        <time>2022-02-15T14:38:03Z</time>
      </trkpt>
      <trkpt lat="45.81604" lon="4.54953">
        <ele>364</ele>
        <time>2022-02-15T14:39:13Z</time>
      </trkpt>
      <trkpt lat="45.81649" lon="4.54877">
        <ele>369</ele>
        <time>2022-02-15T14:40:46Z</time>
      </trkpt>
      <trkpt lat="45.81649" lon="4.54808">
        <ele>363</ele>
        <time>2022-02-15T14:41:50Z</time>
      </trkpt>
      <trkpt lat="45.81594" lon="4.54838">
        <ele>355</ele>
        <time>2022-02-15T14:43:09Z</time>
      </trkpt>
      <trkpt lat="45.81634" lon="4.54684">
        <ele>356</ele>
        <time>2022-02-15T14:45:41Z</time>
      </trkpt>
      <trkpt lat="45.81527" lon="4.54652">
        <ele>370</ele>
        <time>2022-02-15T14:48:07Z</time>
      </trkpt>
      <trkpt lat="45.81631" lon="4.54517">
        <ele>372</ele>
        <time>2022-02-15T14:51:15Z</time>
      </trkpt>
      <trkpt lat="45.81672" lon="4.5452">
        <ele>372</ele>
        <time>2022-02-15T14:52:09Z</time>
      </trkpt>
      <trkpt lat="45.81711" lon="4.54437">
        <ele>382</ele>
        <time>2022-02-15T14:53:42Z</time>
      </trkpt>
      <trkpt lat="45.81981" lon="4.54303">
        <ele>392</ele>
        <time>2022-02-15T15:00:04Z</time>
      </trkpt>
      <trkpt lat="45.82046" lon="4.54327">
        <ele>390</ele>
        <time>2022-02-15T15:01:33Z</time>
      </trkpt>
      <trkpt lat="45.82147" lon="4.54315">
        <ele>389</ele>
        <time>2022-02-15T15:03:48Z</time>
      </trkpt>
      <trkpt lat="45.82172" lon="4.5416">
        <ele>403</ele>
        <time>2022-02-15T15:06:16Z</time>
      </trkpt>
      <trkpt lat="45.82403" lon="4.54038">
        <ele>405</ele>
        <time>2022-02-15T15:11:45Z</time>
      </trkpt>
      <trkpt lat="45.82644" lon="4.53841">
        <ele>414</ele>
        <time>2022-02-15T15:17:55Z</time>
      </trkpt>
      <trkpt lat="45.82685" lon="4.53633">
        <ele>426</ele>
        <time>2022-02-15T15:21:16Z</time>
      </trkpt>
      <trkpt lat="45.82473" lon="4.53291">
        <ele>467</ele>
        <time>2022-02-15T15:28:22Z</time>
      </trkpt>
      <trkpt lat="45.8244" lon="4.53283">
        <ele>474</ele>
        <time>2022-02-15T15:29:06Z</time>
      </trkpt>
      <trkpt lat="45.82358" lon="4.53551">
        <ele>478</ele>
        <time>2022-02-15T15:33:39Z</time>
      </trkpt>
      <trkpt lat="45.82346" lon="4.53409">
        <ele>485</ele>
        <time>2022-02-15T15:35:52Z</time>
      </trkpt>
      <trkpt lat="45.82248" lon="4.53144">
        <ele>510</ele>
        <time>2022-02-15T15:40:31Z</time>
      </trkpt>
      <trkpt lat="45.82175" lon="4.53192">
        <ele>518</ele>
        <time>2022-02-15T15:42:18Z</time>
      </trkpt>
      <trkpt lat="45.8212" lon="4.5293">
        <ele>539</ele>
        <time>2022-02-15T15:46:32Z</time>
      </trkpt>
      <trkpt lat="45.82153" lon="4.52681">
        <ele>569</ele>
        <time>2022-02-15T15:50:28Z</time>
      </trkpt>
      <trkpt lat="45.8215" lon="4.52519">
        <ele>598</ele>
        <time>2022-02-15T15:52:59Z</time>
      </trkpt>
      <trkpt lat="45.82381" lon="4.52346">
        <ele>644</ele>
        <time>2022-02-15T15:58:46Z</time>
      </trkpt>
      <trkpt lat="45.82432" lon="4.5237">
        <ele>638</ele>
        <time>2022-02-15T15:59:58Z</time>
      </trkpt>
      <trkpt lat="45.82527" lon="4.52241">
        <ele>669</ele>
        <time>2022-02-15T16:02:52Z</time>
      </trkpt>
      <trkpt lat="45.82546" lon="4.52037">
        <ele>704</ele>
        <time>2022-02-15T16:06:04Z</time>
      </trkpt>
      <trkpt lat="45.82491" lon="4.51648">
        <ele>757</ele>
        <time>2022-02-15T16:12:13Z</time>
      </trkpt>
      <trkpt lat="45.82527" lon="4.51439">
        <ele>763</ele>
        <time>2022-02-15T16:15:33Z</time>
      </trkpt>
      <trkpt lat="45.82109" lon="4.51357">
        <ele>753</ele>
        <time>2022-02-15T16:24:56Z</time>
      </trkpt>
      <trkpt lat="45.81827" lon="4.51324">
        <ele>741</ele>
        <time>2022-02-15T16:31:14Z</time>
      </trkpt>
      <trkpt lat="45.81857" lon="4.51519">
        <ele>758</ele>
        <time>2022-02-15T16:34:19Z</time>
      </trkpt>
      <trkpt lat="45.82182" lon="4.51739">
        <ele>808</ele>
        <time>2022-02-15T16:42:19Z</time>
      </trkpt>
      <trkpt lat="45.81854" lon="4.51524">
        <ele>757</ele>
        <time>2022-02-15T16:50:20Z</time>
      </trkpt>
      <trkpt lat="45.81822" lon="4.51325">
        <ele>741</ele>
        <time>2022-02-15T16:53:30Z</time>
      </trkpt>
      <trkpt lat="45.81779" lon="4.51191">
        <ele>730</ele>
        <time>2022-02-15T16:55:47Z</time>
      </trkpt>
      <trkpt lat="45.81815" lon="4.51085">
        <ele>719</ele>
        <time>2022-02-15T16:57:37Z</time>
      </trkpt>
      <trkpt lat="45.81808" lon="4.51028">
        <ele>713</ele>
        <time>2022-02-15T16:58:31Z</time>
      </trkpt>
      <trkpt lat="45.81746" lon="4.50974">
        <ele>711</ele>
        <time>2022-02-15T17:00:08Z</time>
      </trkpt>
      <trkpt lat="45.81684" lon="4.51227">
        <ele>720</ele>
        <time>2022-02-15T17:04:17Z</time>
      </trkpt>
      <trkpt lat="45.81593" lon="4.51337">
        <ele>707</ele>
        <time>2022-02-15T17:06:56Z</time>
      </trkpt>
      <trkpt lat="45.81545" lon="4.51636">
        <ele>678</ele>
        <time>2022-02-15T17:11:41Z</time>
      </trkpt>
      <trkpt lat="45.8156" lon="4.51776">
        <ele>663</ele>
        <time>2022-02-15T17:13:53Z</time>
      </trkpt>
      <trkpt lat="45.81532" lon="4.51741">
        <ele>662</ele>
        <time>2022-02-15T17:14:43Z</time>
      </trkpt>
      <trkpt lat="45.81544" lon="4.51818">
        <ele>651</ele>
        <time>2022-02-15T17:15:56Z</time>
      </trkpt>
      <trkpt lat="45.81609" lon="4.51848">
        <ele>657</ele>
        <time>2022-02-15T17:17:27Z</time>
      </trkpt>
      <trkpt lat="45.81681" lon="4.52033">
        <ele>650</ele>
        <time>2022-02-15T17:20:44Z</time>
      </trkpt>
      <trkpt lat="45.81731" lon="4.52456">
        <ele>602</ele>
        <time>2022-02-15T17:27:23Z</time>
      </trkpt>
      <trkpt lat="45.81702" lon="4.52527">
        <ele>591</ele>
        <time>2022-02-15T17:28:40Z</time>
      </trkpt>
      <trkpt lat="45.81626" lon="4.52998">
        <ele>572</ele>
        <time>2022-02-15T17:36:09Z</time>
      </trkpt>
      <trkpt lat="45.81596" lon="4.52978">
        <ele>571</ele>
        <time>2022-02-15T17:36:53Z</time>
      </trkpt>
      <trkpt lat="45.81572" lon="4.53053">
        <ele>563</ele>
        <time>2022-02-15T17:38:10Z</time>
      </trkpt>
      <trkpt lat="45.81592" lon="4.53231">
        <ele>546</ele>
        <time>2022-02-15T17:40:58Z</time>
      </trkpt>
      <trkpt lat="45.81538" lon="4.5337">
        <ele>529</ele>
        <time>2022-02-15T17:43:26Z</time>
      </trkpt>
      <trkpt lat="45.81511" lon="4.53569">
        <ele>535</ele>
        <time>2022-02-15T17:46:34Z</time>
      </trkpt>
      <trkpt lat="45.81445" lon="4.53767">
        <ele>525</ele>
        <time>2022-02-15T17:49:59Z</time>
      </trkpt>
      <trkpt lat="45.81297" lon="4.54063">
        <ele>519</ele>
        <time>2022-02-15T17:55:37Z</time>
      </trkpt>
      <trkpt lat="45.81129" lon="4.54311">
        <ele>513</ele>
        <time>2022-02-15T18:00:59Z</time>
      </trkpt>
      <trkpt lat="45.81045" lon="4.54712">
        <ele>489</ele>
        <time>2022-02-15T18:07:29Z</time>
      </trkpt>
      <trkpt lat="45.81097" lon="4.54739">
        <ele>484</ele>
        <time>2022-02-15T18:08:42Z</time>
      </trkpt>
      <trkpt lat="45.81041" lon="4.54825">
        <ele>469</ele>
        <time>2022-02-15T18:10:32Z</time>
      </trkpt>
      <trkpt lat="45.80927" lon="4.54875">
        <ele>453</ele>
        <time>2022-02-15T18:13:11Z</time>
      </trkpt>
      <trkpt lat="45.80692" lon="4.55298">
        <ele>440</ele>
        <time>2022-02-15T18:21:34Z</time>
      </trkpt>
      <trkpt lat="45.80616" lon="4.55491">
        <ele>417</ele>
        <time>2022-02-15T18:25:00Z</time>
      </trkpt>
      <trkpt lat="45.80502" lon="4.56092">
        <ele>403</ele>
        <time>2022-02-15T18:34:40Z</time>
      </trkpt>
      <trkpt lat="45.80656" lon="4.56127">
        <ele>395</ele>
        <time>2022-02-15T18:38:08Z</time>
      </trkpt>
      <trkpt lat="45.80771" lon="4.56315">
        <ele>371</ele>
        <time>2022-02-15T18:42:00Z</time>
      </trkpt>
      <trkpt lat="45.80824" lon="4.56467">
        <ele>359</ele>
        <time>2022-02-15T18:44:39Z</time>
      </trkpt>
      <trkpt lat="45.80992" lon="4.56582">
        <ele>345</ele>
        <time>2022-02-15T18:48:47Z</time>
      </trkpt>
      <trkpt lat="45.81032" lon="4.5672">
        <ele>344</ele>
        <time>2022-02-15T18:51:06Z</time>
      </trkpt>
      <trkpt lat="45.80983" lon="4.56871">
        <ele>355</ele>
        <time>2022-02-15T18:53:41Z</time>
      </trkpt>
      <trkpt lat="45.81072" lon="4.57152">
        <ele>333</ele>
        <time>2022-02-15T18:58:28Z</time>
      </trkpt>
      <trkpt lat="45.81084" lon="4.57269">
        <ele>326</ele>
        <time>2022-02-15T19:00:18Z</time>
      </trkpt>
      <trkpt lat="45.81056" lon="4.57317">
        <ele>327</ele>
        <time>2022-02-15T19:01:16Z</time>
      </trkpt>
      <trkpt lat="45.81059" lon="4.57374">
        <ele>323</ele>
        <time>2022-02-15T19:02:09Z</time>
      </trkpt>
      <trkpt lat="45.81179" lon="4.57429">
        <ele>302</ele>
        <time>2022-02-15T19:04:57Z</time>
      </trkpt>
      <trkpt lat="45.81219" lon="4.57393">
        <ele>293</ele>
        <time>2022-02-15T19:06:00Z</time>
      </trkpt>
      <trkpt lat="45.81271" lon="4.57481">
        <ele>283</ele>
        <time>2022-02-15T19:07:48Z</time>
      </trkpt>
      <trkpt lat="45.8142" lon="4.57546">
        <ele>274</ele>
        <time>2022-02-15T19:11:16Z</time>
      </trkpt>
      <trkpt lat="45.8151" lon="4.57528">
        <ele>283</ele>
        <time>2022-02-15T19:13:17Z</time>
      </trkpt>
      <trkpt lat="45.81579" lon="4.57465">
        <ele>295</ele>
        <time>2022-02-15T19:15:06Z</time>
      </trkpt>
      <trkpt lat="45.81659" lon="4.57495">
        <ele>297</ele>
        <time>2022-02-15T19:16:56Z</time>
      </trkpt>
    </trkseg>
  </trk>
</gpx>